KAHN/AHN METAR and TAF weather

Enter ICAO airport designator
Station Type Date Time Source
KAHN METAR 2018/10/22 15:51 UTC NOAA

KAHN 221551Z VRB04KT 10SM CLR 16/02 A3035 RMK AO2 SLP278 T01560022


Station Type Date Time Source
KAHN Decoded METAR 2018/10/22 15:51 UTC NOAA

ATHENS BEN EPPS AIRPORT, GA, United States (KAHN) 33-57N 083-20W 244M
Oct 22, 2018 - 11:51 AM EDT / 2018.10.22 1551 UTC
Wind: Variable at 5 MPH (4 KT):0
Visibility: 10 mile(s):0
Sky conditions: clear
Temperature: 60.1 F (15.6 C)
Dew Point: 36.0 F (2.2 C)
Relative Humidity: 40%
Pressure (altimeter): 30.35 in. Hg (1027 hPa)
ob: KAHN 221551Z VRB04KT 10SM CLR 16/02 A3035 RMK AO2 SLP278 T01560022
cycle: 16

Station Type Date Time Source
KAHN TAF 2018/10/22 12:22 UTC NOAA

TAF KAHN 221120Z 2212/2312 VRB03KT P6SM SCT250
FM221500 13004KT P6SM SCT250
FM230000 00000KT P6SM BKN250
FM230600 00000KT P6SM SCT035 BKN250


Example: see airport list